Time;durP1;ratioP1;P1;durP2;ratioP2;P2;SDS_P1;SDS_P2;PMS_P1;PMS_P2;Temp;Humidity;BMP_temperature;BMP_pressure;BME280_temperature;BME280_humidity;BME280_pressure;Samples;Min_cycle;Max_cycle;Signal;HPM_P1;HPM_P2
2024/01/27 00:01:47;;;;;;;20.87;5.37;;;;;;;;;;5006499;28;20026;-58
2024/01/27 00:04:12;;;;;;;21.83;5.33;;;;;;;;;;4999581;28;20285;-60
2024/01/27 00:06:37;;;;;;;26.87;5.40;;;;;;;;;;4990658;28;20272;-60
2024/01/27 00:09:05;;;;;;;23.27;6.85;;;;;;;;;;5001764;28;20277;-59
2024/01/27 00:11:30;;;;;;;22.08;5.57;;;;;;;;;;5002163;28;20351;-59
2024/01/27 00:13:56;;;;;;;22.15;5.65;;;;;;;;;;5005367;28;20036;-58
2024/01/27 00:16:21;;;;;;;23.50;6.43;;;;;;;;;;4998007;28;20022;-58
2024/01/27 00:18:46;;;;;;;21.93;5.53;;;;;;;;;;4998334;28;20325;-57
2024/01/27 00:21:11;;;;;;;23.17;5.43;;;;;;;;;;5000076;28;20755;-58
2024/01/27 00:23:36;;;;;;;20.20;4.95;;;;;;;;;;4995871;28;20296;-58
2024/01/27 00:26:02;;;;;;;21.30;5.38;;;;;;;;;;5004847;28;20468;-58
2024/01/27 00:28:27;;;;;;;22.05;5.45;;;;;;;;;;4993632;28;20022;-59
2024/01/27 00:30:52;;;;;;;21.73;5.43;;;;;;;;;;5005865;28;20034;-57
2024/01/27 00:33:17;;;;;;;23.45;5.93;;;;;;;;;;4994602;28;20027;-58
2024/01/27 00:35:43;;;;;;;20.27;5.33;;;;;;;;;;4999837;28;20608;-58
2024/01/27 00:38:08;;;;;;;22.63;6.00;;;;;;;;;;5006913;28;20275;-58
2024/01/27 00:40:33;;;;;;;25.83;5.78;;;;;;;;;;5006317;28;20049;-59
2024/01/27 00:42:58;;;;;;;21.33;5.40;;;;;;;;;;5001902;28;20061;-59
2024/01/27 00:45:24;;;;;;;21.13;5.43;;;;;;;;;;4992997;28;20306;-58
2024/01/27 00:47:49;;;;;;;22.08;5.80;;;;;;;;;;5003907;28;20054;-57
2024/01/27 00:50:14;;;;;;;25.30;6.88;;;;;;;;;;4993092;28;20022;-59
2024/01/27 00:52:40;;;;;;;23.98;7.07;;;;;;;;;;4999260;28;20402;-58
2024/01/27 00:55:05;;;;;;;22.70;6.53;;;;;;;;;;5010451;28;20109;-58
2024/01/27 00:57:30;;;;;;;25.00;7.00;;;;;;;;;;5004194;28;20665;-59
2024/01/27 00:59:55;;;;;;;24.33;6.68;;;;;;;;;;5000002;28;20050;-60
2024/01/27 01:02:20;;;;;;;24.00;6.37;;;;;;;;;;4995914;28;20018;-58
2024/01/27 01:04:46;;;;;;;20.73;6.23;;;;;;;;;;5000965;28;20387;-58
2024/01/27 01:07:11;;;;;;;24.33;6.95;;;;;;;;;;4993482;28;20280;-58
2024/01/27 01:09:36;;;;;;;21.98;6.00;;;;;;;;;;5004757;28;20495;-57
2024/01/27 01:12:02;;;;;;;21.27;5.87;;;;;;;;;;4992936;28;20543;-57
2024/01/27 01:14:27;;;;;;;23.77;6.53;;;;;;;;;;5000578;28;20279;-58
2024/01/27 01:16:52;;;;;;;23.77;6.10;;;;;;;;;;4994419;28;20541;-58
2024/01/27 01:19:17;;;;;;;23.77;7.47;;;;;;;;;;4996008;28;20273;-58
2024/01/27 01:21:43;;;;;;;22.85;5.72;;;;;;;;;;5006509;28;20273;-57
2024/01/27 01:24:08;;;;;;;24.60;6.22;;;;;;;;;;5004472;28;20026;-57
2024/01/27 01:26:33;;;;;;;23.07;6.00;;;;;;;;;;5004928;28;20042;-57
2024/01/27 01:28:59;;;;;;;22.40;5.93;;;;;;;;;;5001168;28;20313;-57
2024/01/27 01:31:24;;;;;;;22.47;5.70;;;;;;;;;;4994369;28;20285;-59
2024/01/27 01:33:49;;;;;;;24.77;5.72;;;;;;;;;;5003301;28;20273;-58
2024/01/27 01:36:14;;;;;;;24.00;6.75;;;;;;;;;;4993881;28;20022;-59
2024/01/27 01:38:40;;;;;;;22.83;6.77;;;;;;;;;;5004597;28;20030;-59
2024/01/27 01:41:05;;;;;;;25.27;6.30;;;;;;;;;;4994044;28;20270;-59
2024/01/27 01:43:31;;;;;;;22.60;5.68;;;;;;;;;;5000377;28;20474;-59
2024/01/27 01:45:56;;;;;;;20.87;5.67;;;;;;;;;;5005244;28;20026;-59
2024/01/27 01:48:21;;;;;;;21.30;5.85;;;;;;;;;;5007546;28;20324;-60
2024/01/27 01:50:46;;;;;;;22.63;6.65;;;;;;;;;;5002977;28;20084;-59
2024/01/27 01:53:12;;;;;;;23.38;6.07;;;;;;;;;;5010121;28;20052;-58
2024/01/27 01:55:37;;;;;;;24.20;6.70;;;;;;;;;;5003541;28;20466;-59
2024/01/27 01:58:02;;;;;;;24.67;6.35;;;;;;;;;;5011931;28;20022;-56
2024/01/27 02:00:28;;;;;;;24.67;6.55;;;;;;;;;;5000752;28;20014;-58
2024/01/27 02:02:53;;;;;;;24.07;6.93;;;;;;;;;;5008454;28;20029;-58
2024/01/27 02:05:18;;;;;;;23.97;6.77;;;;;;;;;;5003413;28;20277;-59
2024/01/27 02:07:43;;;;;;;23.40;7.13;;;;;;;;;;5000553;28;20781;-58
2024/01/27 02:10:17;;;;;;;22.73;6.57;;;;;;;;;;4994535;28;20043;-60
2024/01/27 02:12:44;;;;;;;25.80;6.80;;;;;;;;;;5007386;28;20337;-59
2024/01/27 02:15:09;;;;;;;23.40;7.43;;;;;;;;;;5009801;28;20025;-59
2024/01/27 02:17:35;;;;;;;23.80;6.95;;;;;;;;;;5003074;28;20029;-57
2024/01/27 02:20:00;;;;;;;25.80;7.03;;;;;;;;;;4990240;28;20061;-60
2024/01/27 02:22:25;;;;;;;23.73;6.97;;;;;;;;;;5000808;28;20838;-59
2024/01/27 02:24:50;;;;;;;22.40;7.27;;;;;;;;;;4995083;28;20034;-59
2024/01/27 02:27:16;;;;;;;24.53;7.00;;;;;;;;;;4995225;28;20758;-59
2024/01/27 02:29:41;;;;;;;26.02;7.55;;;;;;;;;;4999931;28;20292;-59
2024/01/27 02:32:06;;;;;;;24.43;7.47;;;;;;;;;;4994041;28;20113;-59
2024/01/27 02:34:31;;;;;;;25.30;7.43;;;;;;;;;;4997365;28;20276;-59
2024/01/27 02:36:56;;;;;;;21.75;7.18;;;;;;;;;;5009921;28;20032;-58
2024/01/27 02:39:22;;;;;;;25.90;7.03;;;;;;;;;;5003223;28;20040;-63
2024/01/27 02:41:48;;;;;;;24.15;7.40;;;;;;;;;;4991480;28;20289;-59
2024/01/27 02:44:13;;;;;;;24.50;7.57;;;;;;;;;;4998374;28;20388;-58
2024/01/27 02:46:38;;;;;;;24.23;7.53;;;;;;;;;;4995962;28;20042;-59
2024/01/27 02:49:03;;;;;;;25.13;7.90;;;;;;;;;;4993637;28;20336;-58
2024/01/27 02:51:28;;;;;;;28.23;7.68;;;;;;;;;;4999571;28;20019;-58
2024/01/27 02:53:54;;;;;;;27.80;8.63;;;;;;;;;;4993256;28;20030;-59
2024/01/27 02:56:19;;;;;;;23.27;7.28;;;;;;;;;;4998875;28;20269;-57
2024/01/27 02:58:44;;;;;;;22.33;7.60;;;;;;;;;;4999370;28;20018;-57
2024/01/27 03:01:09;;;;;;;21.77;7.53;;;;;;;;;;5010894;28;20719;-57
2024/01/27 03:03:34;;;;;;;24.87;7.90;;;;;;;;;;5003159;28;20288;-57
2024/01/27 03:05:59;;;;;;;23.43;7.53;;;;;;;;;;4998093;28;20280;-59
2024/01/27 03:08:25;;;;;;;24.07;8.10;;;;;;;;;;4999010;28;20741;-57
2024/01/27 03:10:50;;;;;;;23.20;8.33;;;;;;;;;;4993027;28;20288;-57
2024/01/27 03:13:15;;;;;;;26.65;9.27;;;;;;;;;;5009262;28;20260;-58
2024/01/27 03:15:42;;;;;;;23.75;7.90;;;;;;;;;;5006813;28;20028;-58
2024/01/27 03:18:07;;;;;;;25.85;8.48;;;;;;;;;;5001311;28;20014;-57
2024/01/27 03:20:32;;;;;;;25.92;8.45;;;;;;;;;;4990860;28;20035;-57
2024/01/27 03:22:58;;;;;;;23.57;8.03;;;;;;;;;;4997545;28;20037;-58
2024/01/27 03:25:25;;;;;;;24.50;9.07;;;;;;;;;;5009509;28;20334;-57
2024/01/27 03:27:51;;;;;;;29.65;9.05;;;;;;;;;;5002587;28;20283;-56
2024/01/27 03:30:16;;;;;;;23.42;8.23;;;;;;;;;;4996693;28;20308;-58
2024/01/27 03:32:41;;;;;;;24.02;9.20;;;;;;;;;;4997385;28;20057;-57
2024/01/27 03:35:07;;;;;;;26.58;8.68;;;;;;;;;;4999065;28;20050;-58
2024/01/27 03:37:32;;;;;;;24.33;7.97;;;;;;;;;;4991237;28;20024;-58
2024/01/27 03:39:57;;;;;;;24.85;7.95;;;;;;;;;;4999038;28;20060;-58
2024/01/27 03:42:24;;;;;;;25.27;8.33;;;;;;;;;;5010027;28;20046;-58
2024/01/27 03:44:49;;;;;;;23.63;8.70;;;;;;;;;;5002167;28;20314;-58
2024/01/27 03:47:14;;;;;;;24.87;8.67;;;;;;;;;;4995396;28;20475;-58
2024/01/27 03:49:39;;;;;;;24.70;8.45;;;;;;;;;;4999307;28;20282;-58
2024/01/27 03:52:05;;;;;;;28.10;8.77;;;;;;;;;;5001547;28;20050;-58
2024/01/27 03:54:30;;;;;;;21.45;7.70;;;;;;;;;;4998072;28;20276;-57
2024/01/27 03:56:55;;;;;;;25.83;8.30;;;;;;;;;;5002201;28;20023;-57
2024/01/27 03:59:20;;;;;;;27.77;9.23;;;;;;;;;;4994277;28;20599;-57
2024/01/27 04:01:46;;;;;;;28.83;8.52;;;;;;;;;;5005900;28;20411;-57
2024/01/27 04:04:11;;;;;;;27.85;9.07;;;;;;;;;;4994142;28;20034;-56
2024/01/27 04:06:40;;;;;;;24.10;8.10;;;;;;;;;;5000297;28;20463;-57
2024/01/27 04:09:08;;;;;;;28.98;8.65;;;;;;;;;;5010809;28;20268;-57
2024/01/27 04:11:34;;;;;;;26.95;8.48;;;;;;;;;;5006292;28;20512;-57
2024/01/27 04:13:59;;;;;;;26.73;9.68;;;;;;;;;;5001725;28;20116;-57
2024/01/27 04:16:24;;;;;;;27.27;8.70;;;;;;;;;;4997019;28;20026;-57
2024/01/27 04:18:49;;;;;;;25.15;8.88;;;;;;;;;;5002317;28;20141;-58
2024/01/27 04:21:14;;;;;;;25.93;8.37;;;;;;;;;;4994078;28;20026;-58
2024/01/27 04:23:39;;;;;;;25.23;8.73;;;;;;;;;;5005761;28;20400;-58
2024/01/27 04:26:06;;;;;;;27.37;8.03;;;;;;;;;;4993760;28;20292;-58
2024/01/27 04:28:31;;;;;;;27.15;8.73;;;;;;;;;;5000105;28;20274;-58
2024/01/27 04:30:56;;;;;;;24.60;8.68;;;;;;;;;;5009181;28;20037;-59
2024/01/27 04:33:22;;;;;;;24.52;8.60;;;;;;;;;;5006378;28;20038;-58
2024/01/27 04:35:47;;;;;;;28.40;9.70;;;;;;;;;;5012330;28;20029;-57
2024/01/27 04:38:12;;;;;;;26.60;9.27;;;;;;;;;;5009631;28;20424;-58
2024/01/27 04:40:37;;;;;;;22.23;8.33;;;;;;;;;;5004064;28;20030;-58
2024/01/27 04:43:02;;;;;;;25.23;9.03;;;;;;;;;;4993646;28;20269;-58
2024/01/27 04:45:28;;;;;;;28.05;9.18;;;;;;;;;;5005529;28;20288;-57
2024/01/27 04:47:53;;;;;;;24.98;9.20;;;;;;;;;;4993563;28;20034;-58
2024/01/27 04:50:19;;;;;;;25.38;8.93;;;;;;;;;;4999637;28;20026;-57
2024/01/27 04:52:44;;;;;;;29.30;10.95;;;;;;;;;;4998641;28;20050;-57
2024/01/27 04:55:10;;;;;;;27.15;9.20;;;;;;;;;;4997434;28;20104;-59
2024/01/27 04:57:35;;;;;;;26.98;9.25;;;;;;;;;;5003075;28;20014;-58
2024/01/27 05:00:00;;;;;;;24.85;9.07;;;;;;;;;;5010086;28;20117;-57
2024/01/27 05:02:25;;;;;;;25.70;9.45;;;;;;;;;;5004019;28;20029;-58
2024/01/27 05:04:51;;;;;;;25.02;9.15;;;;;;;;;;4992483;28;20044;-58
2024/01/27 05:07:16;;;;;;;26.15;9.93;;;;;;;;;;4999600;28;20054;-63
2024/01/27 05:09:41;;;;;;;26.13;9.47;;;;;;;;;;5003674;28;20438;-59
2024/01/27 05:12:07;;;;;;;24.83;9.30;;;;;;;;;;4997000;28;20309;-58
2024/01/27 05:14:32;;;;;;;26.73;8.63;;;;;;;;;;4998456;28;20273;-58
2024/01/27 05:16:57;;;;;;;23.77;8.57;;;;;;;;;;4996059;28;20060;-59
2024/01/27 05:19:22;;;;;;;25.87;9.70;;;;;;;;;;5001593;28;20611;-59
2024/01/27 05:21:47;;;;;;;26.65;8.88;;;;;;;;;;4993020;28;20286;-59
2024/01/27 05:24:12;;;;;;;24.37;8.33;;;;;;;;;;5000577;28;20133;-59
2024/01/27 05:26:38;;;;;;;23.70;9.07;;;;;;;;;;5012331;28;20822;-57
2024/01/27 05:29:03;;;;;;;24.37;9.37;;;;;;;;;;5004649;28;20287;-57
2024/01/27 05:31:28;;;;;;;25.40;9.00;;;;;;;;;;4996409;28;20839;-57
2024/01/27 05:33:53;;;;;;;25.87;8.97;;;;;;;;;;4995798;28;20038;-60
2024/01/27 05:36:18;;;;;;;24.30;8.63;;;;;;;;;;5000837;28;20265;-58
2024/01/27 05:38:44;;;;;;;27.40;9.40;;;;;;;;;;4994413;28;20033;-57
2024/01/27 05:41:09;;;;;;;26.67;8.97;;;;;;;;;;5002353;28;20265;-57
2024/01/27 05:43:34;;;;;;;22.60;8.65;;;;;;;;;;4991867;28;20289;-58
2024/01/27 05:45:59;;;;;;;24.90;9.20;;;;;;;;;;5004090;28;20422;-58
2024/01/27 05:48:25;;;;;;;26.30;9.20;;;;;;;;;;4992040;28;20393;-57
2024/01/27 05:50:56;;;;;;;25.63;9.13;;;;;;;;;;4998132;28;20060;-57
2024/01/27 05:53:22;;;;;;;22.67;8.77;;;;;;;;;;4996057;28;20498;-57
2024/01/27 05:55:47;;;;;;;28.30;9.10;;;;;;;;;;4995369;28;20034;-56
2024/01/27 05:58:12;;;;;;;26.00;9.80;;;;;;;;;;5000676;28;20019;-57
2024/01/27 06:00:37;;;;;;;26.43;9.77;;;;;;;;;;4993539;28;20030;-58
2024/01/27 06:03:03;;;;;;;24.30;8.97;;;;;;;;;;4998961;28;20272;-57
2024/01/27 06:05:28;;;;;;;26.98;9.65;;;;;;;;;;5011048;28;20293;-58
2024/01/27 06:07:53;;;;;;;24.48;9.55;;;;;;;;;;4998886;28;20026;-57
2024/01/27 06:10:18;;;;;;;24.88;10.05;;;;;;;;;;5010203;28;20501;-58
2024/01/27 06:12:43;;;;;;;25.15;11.20;;;;;;;;;;5003459;28;20127;-59
2024/01/27 06:15:10;;;;;;;27.30;9.77;;;;;;;;;;4997690;28;20113;-57
2024/01/27 06:17:35;;;;;;;27.05;10.32;;;;;;;;;;4994959;28;20057;-57
2024/01/27 06:20:00;;;;;;;25.60;10.63;;;;;;;;;;4999764;28;20513;-57
2024/01/27 06:22:25;;;;;;;24.43;10.13;;;;;;;;;;4992937;28;20273;-58
2024/01/27 06:24:51;;;;;;;27.20;10.57;;;;;;;;;;4998864;28;20374;-57
2024/01/27 06:27:16;;;;;;;26.55;10.50;;;;;;;;;;5010199;28;20284;-58
2024/01/27 06:29:42;;;;;;;27.07;10.80;;;;;;;;;;5002907;28;20026;-58
2024/01/27 06:32:07;;;;;;;26.60;11.48;;;;;;;;;;4993688;28;20749;-57
2024/01/27 06:34:33;;;;;;;25.40;11.25;;;;;;;;;;4995764;28;20502;-58
2024/01/27 06:36:58;;;;;;;28.83;12.02;;;;;;;;;;4998650;28;20018;-57
2024/01/27 06:39:24;;;;;;;26.98;10.77;;;;;;;;;;4995136;28;20386;-58
2024/01/27 06:41:49;;;;;;;26.55;11.80;;;;;;;;;;4999470;28;20389;-57
2024/01/27 06:44:14;;;;;;;28.63;12.20;;;;;;;;;;4991821;28;20030;-58
2024/01/27 06:46:39;;;;;;;25.73;10.93;;;;;;;;;;5003163;28;20277;-58
2024/01/27 06:49:04;;;;;;;28.03;11.43;;;;;;;;;;4990976;28;20757;-58
2024/01/27 06:51:29;;;;;;;26.50;10.95;;;;;;;;;;4997851;28;20283;-58
2024/01/27 06:53:55;;;;;;;26.83;11.10;;;;;;;;;;4994951;28;20089;-57
2024/01/27 06:56:20;;;;;;;27.63;12.00;;;;;;;;;;4996136;28;20332;-58
2024/01/27 06:58:45;;;;;;;24.08;11.05;;;;;;;;;;5002020;28;20022;-58
2024/01/27 07:01:10;;;;;;;24.27;9.57;;;;;;;;;;5007453;28;20023;-58
2024/01/27 07:03:35;;;;;;;26.03;10.27;;;;;;;;;;4999661;28;20324;-58
2024/01/27 07:06:01;;;;;;;29.10;11.37;;;;;;;;;;5011137;28;20328;-58
2024/01/27 07:08:26;;;;;;;26.00;11.30;;;;;;;;;;5003180;28;20277;-58
2024/01/27 07:10:51;;;;;;;26.17;10.57;;;;;;;;;;4998862;28;20496;-58
2024/01/27 07:13:16;;;;;;;26.42;10.13;;;;;;;;;;5001032;28;20482;-58
2024/01/27 07:15:42;;;;;;;24.48;10.07;;;;;;;;;;4996288;28;20049;-58
2024/01/27 07:18:07;;;;;;;25.70;10.57;;;;;;;;;;4992460;28;20026;-58
2024/01/27 07:20:32;;;;;;;27.98;10.90;;;;;;;;;;5000280;28;20054;-58
2024/01/27 07:22:58;;;;;;;28.23;11.50;;;;;;;;;;4991861;28;20327;-59
2024/01/27 07:25:23;;;;;;;26.63;11.23;;;;;;;;;;5001908;28;20026;-58
2024/01/27 07:27:48;;;;;;;27.57;12.03;;;;;;;;;;4989711;28;20400;-58
2024/01/27 07:30:14;;;;;;;30.00;11.53;;;;;;;;;;5001191;28;20300;-58
2024/01/27 07:32:40;;;;;;;30.80;12.25;;;;;;;;;;5003983;28;20359;-58
2024/01/27 07:35:06;;;;;;;30.05;11.85;;;;;;;;;;5001234;28;20363;-58
2024/01/27 07:37:31;;;;;;;28.63;12.65;;;;;;;;;;4998519;28;20026;-59
2024/01/27 07:39:56;;;;;;;27.17;11.20;;;;;;;;;;4994661;28;20092;-59
2024/01/27 07:42:21;;;;;;;27.38;11.00;;;;;;;;;;4999548;28;20022;-57
2024/01/27 07:44:46;;;;;;;30.40;11.73;;;;;;;;;;4990177;28;20529;-57
2024/01/27 07:47:12;;;;;;;27.92;11.90;;;;;;;;;;4994194;28;20289;-58
2024/01/27 07:49:37;;;;;;;30.30;11.50;;;;;;;;;;5010540;28;20549;-58
2024/01/27 07:52:02;;;;;;;27.70;11.60;;;;;;;;;;5000207;28;20304;-58
2024/01/27 07:54:27;;;;;;;27.55;11.65;;;;;;;;;;4995049;28;20280;-58
2024/01/27 07:56:52;;;;;;;29.52;11.15;;;;;;;;;;4994522;28;20037;-58
2024/01/27 07:59:18;;;;;;;26.03;10.57;;;;;;;;;;5000200;28;20568;-58
2024/01/27 08:01:44;;;;;;;31.05;11.82;;;;;;;;;;5005040;28;20261;-58
2024/01/27 08:04:09;;;;;;;28.83;10.80;;;;;;;;;;5010492;28;20026;-59
2024/01/27 08:06:34;;;;;;;23.95;9.88;;;;;;;;;;5010349;28;20045;-59
2024/01/27 08:08:59;;;;;;;27.20;11.15;;;;;;;;;;5010443;28;20097;-58
2024/01/27 08:11:25;;;;;;;27.15;11.32;;;;;;;;;;5010347;28;20109;-58
2024/01/27 08:13:50;;;;;;;27.70;11.15;;;;;;;;;;5010205;28;20033;-58
2024/01/27 08:16:15;;;;;;;29.58;10.43;;;;;;;;;;5010363;28;20040;-58
2024/01/27 08:18:43;;;;;;;26.80;10.82;;;;;;;;;;5010665;28;20022;-57
2024/01/27 08:21:08;;;;;;;28.05;11.07;;;;;;;;;;5010504;28;20022;-58
2024/01/27 08:23:34;;;;;;;28.77;11.80;;;;;;;;;;5010209;28;20038;-58
2024/01/27 08:25:59;;;;;;;26.17;10.95;;;;;;;;;;5010234;28;20022;-57
2024/01/27 08:28:24;;;;;;;28.25;11.20;;;;;;;;;;5010389;28;20493;-58
2024/01/27 08:30:49;;;;;;;29.30;10.73;;;;;;;;;;5010276;28;20018;-58
2024/01/27 08:33:15;;;;;;;30.53;12.30;;;;;;;;;;5013090;28;20625;-58
2024/01/27 08:35:40;;;;;;;30.52;10.57;;;;;;;;;;5013824;28;20265;-57
2024/01/27 08:38:06;;;;;;;27.15;10.85;;;;;;;;;;5002474;28;20116;-61
2024/01/27 08:40:31;;;;;;;27.95;10.88;;;;;;;;;;5003250;28;20031;-63
2024/01/27 08:42:56;;;;;;;26.45;10.95;;;;;;;;;;4994276;28;20030;-59
2024/01/27 08:45:21;;;;;;;26.60;10.97;;;;;;;;;;4993953;28;20030;-58
2024/01/27 08:47:47;;;;;;;30.88;12.10;;;;;;;;;;4993767;28;20888;-59
2024/01/27 08:50:12;;;;;;;28.67;13.40;;;;;;;;;;4994199;28;20026;-57
2024/01/27 08:52:37;;;;;;;31.87;14.63;;;;;;;;;;4993574;28;20296;-58
2024/01/27 08:55:02;;;;;;;31.57;13.90;;;;;;;;;;5000802;28;20277;-57
2024/01/27 08:57:27;;;;;;;29.48;14.00;;;;;;;;;;4995927;28;20361;-59
2024/01/27 08:59:53;;;;;;;32.78;13.88;;;;;;;;;;4993711;28;20097;-59
2024/01/27 09:02:18;;;;;;;28.87;13.37;;;;;;;;;;4993420;28;20428;-60
2024/01/27 09:04:43;;;;;;;31.10;14.53;;;;;;;;;;4993443;28;20285;-59
2024/01/27 09:07:08;;;;;;;30.52;14.40;;;;;;;;;;5000159;28;20812;-60
2024/01/27 09:09:33;;;;;;;33.05;13.77;;;;;;;;;;5010440;28;20050;-60
2024/01/27 09:11:59;;;;;;;28.88;13.40;;;;;;;;;;5007907;28;20058;-58
2024/01/27 09:14:24;;;;;;;27.92;12.45;;;;;;;;;;5004154;28;20277;-58
2024/01/27 09:16:50;;;;;;;29.65;12.23;;;;;;;;;;5002853;28;20470;-58
2024/01/27 09:19:15;;;;;;;27.30;12.13;;;;;;;;;;5004288;28;20485;-59
2024/01/27 09:21:41;;;;;;;32.30;12.82;;;;;;;;;;5001513;28;20030;-59
2024/01/27 09:24:06;;;;;;;28.17;11.02;;;;;;;;;;5002455;28;20109;-59
2024/01/27 09:26:31;;;;;;;27.60;11.40;;;;;;;;;;5002079;28;20075;-59
2024/01/27 09:28:56;;;;;;;29.67;11.27;;;;;;;;;;5012874;28;20469;-58
2024/01/27 09:31:22;;;;;;;28.63;10.32;;;;;;;;;;5012450;28;20014;-58
2024/01/27 09:33:51;;;;;;;30.42;10.73;;;;;;;;;;5012503;28;20507;-58
2024/01/27 09:36:17;;;;;;;24.95;9.93;;;;;;;;;;4992975;28;20014;-58
2024/01/27 09:38:42;;;;;;;28.25;9.80;;;;;;;;;;4991065;28;20036;-57
2024/01/27 09:41:08;;;;;;;27.05;9.48;;;;;;;;;;4990823;28;20455;-58
2024/01/27 09:43:34;;;;;;;26.75;9.85;;;;;;;;;;4990156;28;20041;-58
2024/01/27 09:45:59;;;;;;;24.90;9.13;;;;;;;;;;4996806;28;20304;-62
2024/01/27 09:48:25;;;;;;;27.90;9.23;;;;;;;;;;5001418;28;20037;-58
2024/01/27 09:50:51;;;;;;;26.27;9.23;;;;;;;;;;5000639;28;20816;-59
2024/01/27 09:53:16;;;;;;;27.63;9.88;;;;;;;;;;5001163;28;20050;-58
2024/01/27 09:55:44;;;;;;;27.88;9.02;;;;;;;;;;4999149;28;20338;-59
2024/01/27 09:58:09;;;;;;;26.27;9.10;;;;;;;;;;4999335;28;20089;-60
2024/01/27 10:00:36;;;;;;;26.50;8.67;;;;;;;;;;4999016;28;20105;-59
2024/01/27 10:03:02;;;;;;;24.30;8.52;;;;;;;;;;4998982;28;20352;-59
2024/01/27 10:05:28;;;;;;;26.85;9.32;;;;;;;;;;4998733;28;20030;-58
2024/01/27 10:07:54;;;;;;;25.65;9.13;;;;;;;;;;5002845;28;20029;-59
2024/01/27 10:10:19;;;;;;;27.23;9.40;;;;;;;;;;5001244;28;20026;-58
2024/01/27 10:12:44;;;;;;;25.27;8.33;;;;;;;;;;5001382;28;20297;-59
2024/01/27 10:15:18;;;;;;;27.30;8.05;;;;;;;;;;5006949;28;20279;-58
2024/01/27 10:17:43;;;;;;;27.10;7.95;;;;;;;;;;5009897;28;20018;-58
2024/01/27 10:20:09;;;;;;;25.67;8.97;;;;;;;;;;5009922;28;20032;-59
2024/01/27 10:22:39;;;;;;;25.05;8.23;;;;;;;;;;5008191;28;20273;-59
2024/01/27 10:25:04;;;;;;;23.52;8.55;;;;;;;;;;5009757;28;20359;-59
2024/01/27 10:27:29;;;;;;;24.50;7.75;;;;;;;;;;5009985;28;20501;-58
2024/01/27 10:29:55;;;;;;;23.95;8.35;;;;;;;;;;5010004;28;20054;-59
2024/01/27 10:32:23;;;;;;;23.80;7.53;;;;;;;;;;5009715;28;20462;-59
2024/01/27 10:34:48;;;;;;;24.27;7.72;;;;;;;;;;5009709;28;20561;-58
2024/01/27 10:37:13;;;;;;;27.57;8.40;;;;;;;;;;5003180;28;20104;-59
2024/01/27 10:39:39;;;;;;;24.58;8.25;;;;;;;;;;4995299;28;20301;-59
2024/01/27 10:42:04;;;;;;;24.30;7.37;;;;;;;;;;5009378;28;20076;-59
2024/01/27 10:44:30;;;;;;;24.73;7.65;;;;;;;;;;5009550;28;20284;-59
2024/01/27 10:46:56;;;;;;;26.77;8.85;;;;;;;;;;5009635;28;20042;-58
2024/01/27 10:49:22;;;;;;;22.98;7.60;;;;;;;;;;5009719;28;20025;-59
2024/01/27 10:51:55;;;;;;;25.70;7.63;;;;;;;;;;5009141;28;20129;-60
2024/01/27 10:54:24;;;;;;;22.70;7.90;;;;;;;;;;5009931;28;20026;-59
2024/01/27 10:56:51;;;;;;;26.63;7.88;;;;;;;;;;5007295;28;20017;-59
2024/01/27 10:59:17;;;;;;;27.13;7.93;;;;;;;;;;5006319;28;20030;-58
2024/01/27 11:01:42;;;;;;;24.80;7.95;;;;;;;;;;4998833;28;20113;-59
2024/01/27 11:04:10;;;;;;;24.75;8.50;;;;;;;;;;5001212;28;20037;-59
2024/01/27 11:06:35;;;;;;;24.98;7.10;;;;;;;;;;4993367;28;20030;-61
2024/01/27 11:09:03;;;;;;;25.50;7.33;;;;;;;;;;4994325;28;20026;-59
2024/01/27 11:11:28;;;;;;;26.27;7.43;;;;;;;;;;4997840;28;20729;-60
2024/01/27 11:13:54;;;;;;;23.55;6.90;;;;;;;;;;4998914;28;20029;-59
2024/01/27 11:16:19;;;;;;;22.08;7.22;;;;;;;;;;4992059;28;20018;-60
2024/01/27 11:18:45;;;;;;;26.90;7.35;;;;;;;;;;4997335;28;20014;-59
2024/01/27 11:21:14;;;;;;;23.65;6.10;;;;;;;;;;4993145;28;20022;-60
2024/01/27 11:23:39;;;;;;;23.10;6.47;;;;;;;;;;4991016;28;20054;-60
2024/01/27 11:26:05;;;;;;;23.70;6.67;;;;;;;;;;4997844;28;20058;-60
2024/01/27 11:28:30;;;;;;;24.85;7.43;;;;;;;;;;4993433;28;20564;-61
2024/01/27 11:30:55;;;;;;;25.83;6.88;;;;;;;;;;4999919;28;20019;-59
2024/01/27 11:33:24;;;;;;;27.40;8.17;;;;;;;;;;5000398;28;20026;-59
2024/01/27 11:35:59;;;;;;;29.10;8.73;;;;;;;;;;4997066;28;20340;-59
2024/01/27 11:38:24;;;;;;;27.02;6.90;;;;;;;;;;4988088;28;20534;-58
2024/01/27 11:40:49;;;;;;;24.77;6.67;;;;;;;;;;4998464;28;20037;-59
2024/01/27 11:43:15;;;;;;;23.98;7.13;;;;;;;;;;4990838;28;20281;-59
2024/01/27 11:45:40;;;;;;;25.55;7.28;;;;;;;;;;4992835;28;20387;-59
2024/01/27 11:48:06;;;;;;;22.93;7.10;;;;;;;;;;4997941;28;20438;-61
2024/01/27 11:50:31;;;;;;;24.10;7.32;;;;;;;;;;4995956;28;20268;-60
2024/01/27 11:52:56;;;;;;;23.70;6.50;;;;;;;;;;4999872;28;20111;-58
2024/01/27 11:55:22;;;;;;;22.73;6.53;;;;;;;;;;5004030;28;20026;-59
2024/01/27 11:57:47;;;;;;;22.13;5.43;;;;;;;;;;4999868;28;20323;-60
2024/01/27 12:00:12;;;;;;;24.92;6.70;;;;;;;;;;5004661;28;20332;-59
2024/01/27 12:02:38;;;;;;;21.30;5.95;;;;;;;;;;5002773;28;20023;-59
2024/01/27 12:05:05;;;;;;;23.08;6.53;;;;;;;;;;4989152;28;20030;-60
2024/01/27 12:07:31;;;;;;;21.70;6.43;;;;;;;;;;5000732;28;20030;-59
2024/01/27 12:09:56;;;;;;;24.40;6.05;;;;;;;;;;4992848;28;20125;-59
2024/01/27 12:12:21;;;;;;;21.35;5.40;;;;;;;;;;4998078;28;20101;-59
2024/01/27 12:14:50;;;;;;;21.77;5.30;;;;;;;;;;5002251;28;20034;-60
2024/01/27 12:17:16;;;;;;;22.73;5.22;;;;;;;;;;5003695;28;20022;-60
2024/01/27 12:19:54;;;;;;;23.98;6.03;;;;;;;;;;5010914;28;20104;-59
2024/01/27 12:22:21;;;;;;;21.35;5.65;;;;;;;;;;4997667;28;20096;-60
2024/01/27 12:24:46;;;;;;;20.98;5.10;;;;;;;;;;4992509;28;20026;-59
2024/01/27 12:27:11;;;;;;;23.75;5.82;;;;;;;;;;4992015;28;20467;-60
2024/01/27 12:29:36;;;;;;;23.45;6.32;;;;;;;;;;4992664;28;20033;-59
2024/01/27 12:32:02;;;;;;;20.43;5.77;;;;;;;;;;4993026;28;20425;-59
2024/01/27 12:34:27;;;;;;;20.83;4.47;;;;;;;;;;4992391;28;20122;-59
2024/01/27 12:36:52;;;;;;;22.15;5.82;;;;;;;;;;5000771;28;20109;-60
2024/01/27 12:39:17;;;;;;;24.63;6.40;;;;;;;;;;5011890;28;20053;-59
2024/01/27 12:41:43;;;;;;;20.00;4.93;;;;;;;;;;5010766;28;20084;-59
2024/01/27 12:44:08;;;;;;;24.02;5.35;;;;;;;;;;4999015;28;20034;-59
2024/01/27 12:46:33;;;;;;;22.75;5.65;;;;;;;;;;5000392;28;20030;-59
2024/01/27 12:48:58;;;;;;;20.35;5.05;;;;;;;;;;5002672;28;20029;-59
2024/01/27 12:51:24;;;;;;;25.23;7.60;;;;;;;;;;5002998;28;20404;-61
2024/01/27 12:53:49;;;;;;;21.30;5.70;;;;;;;;;;4992923;28;20309;-60
2024/01/27 12:56:15;;;;;;;23.15;5.72;;;;;;;;;;4991615;28;20029;-59
2024/01/27 12:58:41;;;;;;;19.92;5.60;;;;;;;;;;4991869;28;20068;-59
2024/01/27 13:01:06;;;;;;;22.40;5.68;;;;;;;;;;4991642;28;20015;-60
2024/01/27 13:03:32;;;;;;;25.88;5.35;;;;;;;;;;4991736;28;20053;-60
2024/01/27 13:05:57;;;;;;;23.92;5.25;;;;;;;;;;4991882;28;20026;-59
2024/01/27 13:08:22;;;;;;;22.30;5.53;;;;;;;;;;4991927;28;20538;-60
2024/01/27 13:10:48;;;;;;;19.83;4.95;;;;;;;;;;4991856;28;20501;-60
2024/01/27 13:13:13;;;;;;;18.08;5.00;;;;;;;;;;4991580;28;20113;-59
2024/01/27 13:15:39;;;;;;;20.93;4.93;;;;;;;;;;4991670;28;20031;-59
2024/01/27 13:18:04;;;;;;;23.30;5.05;;;;;;;;;;4996058;28;20276;-59
2024/01/27 13:20:29;;;;;;;19.98;5.50;;;;;;;;;;5011027;28;20109;-59
2024/01/27 13:22:54;;;;;;;20.02;5.20;;;;;;;;;;5002820;28;20049;-60
2024/01/27 13:25:20;;;;;;;23.10;5.20;;;;;;;;;;4999480;28;20037;-59
2024/01/27 13:27:45;;;;;;;20.08;5.50;;;;;;;;;;4993717;28;20277;-59
2024/01/27 13:30:11;;;;;;;18.95;5.00;;;;;;;;;;4994503;28;20519;-60
2024/01/27 13:32:36;;;;;;;17.10;4.72;;;;;;;;;;5002868;28;20390;-59
2024/01/27 13:35:01;;;;;;;22.42;5.10;;;;;;;;;;5009340;28;20033;-59
2024/01/27 13:37:27;;;;;;;20.35;4.82;;;;;;;;;;5010434;28;20022;-60
2024/01/27 13:39:52;;;;;;;21.02;5.20;;;;;;;;;;5010169;28;20077;-60
2024/01/27 13:42:18;;;;;;;21.33;5.00;;;;;;;;;;5010573;28;20452;-59
2024/01/27 13:44:43;;;;;;;23.27;5.30;;;;;;;;;;5009973;28;20299;-59
2024/01/27 13:47:09;;;;;;;19.30;4.57;;;;;;;;;;5008361;28;20327;-59
2024/01/27 13:49:34;;;;;;;20.80;4.93;;;;;;;;;;5009092;28;20022;-60
2024/01/27 13:51:59;;;;;;;21.13;5.22;;;;;;;;;;5008376;28;20453;-59
2024/01/27 13:54:25;;;;;;;21.92;5.28;;;;;;;;;;5008476;28;20339;-59
2024/01/27 13:56:50;;;;;;;21.50;5.22;;;;;;;;;;5009042;28;20025;-59
2024/01/27 13:59:15;;;;;;;22.02;5.13;;;;;;;;;;5000342;28;20490;-59
2024/01/27 14:01:41;;;;;;;21.23;5.25;;;;;;;;;;5001329;28;20033;-60
2024/01/27 14:04:08;;;;;;;23.63;5.17;;;;;;;;;;4998410;28;20032;-60
2024/01/27 14:06:33;;;;;;;20.25;5.47;;;;;;;;;;5002049;28;20045;-59
2024/01/27 14:08:58;;;;;;;21.60;5.30;;;;;;;;;;5000760;28;21972;-59
2024/01/27 14:11:24;;;;;;;21.45;5.22;;;;;;;;;;4997785;28;20021;-59
2024/01/27 14:13:49;;;;;;;20.40;5.10;;;;;;;;;;4992545;28;20019;-59
2024/01/27 14:16:14;;;;;;;20.23;5.10;;;;;;;;;;4998490;28;20664;-60